sensor_id;sensor_type;location;lat;lon;timestamp;pressure;altitude;pressure_sealevel;temperature;humidity
7018;BME280;3549;42.162;24.726;2022-08-18T00:01:20;98376.59;;;21.97;57.25
7018;BME280;3549;42.162;24.726;2022-08-18T00:03:48;98535.69;;;22.86;57.38
7018;BME280;3549;42.162;24.726;2022-08-18T00:06:15;98632.19;;;23.68;56.65
7018;BME280;3549;42.162;24.726;2022-08-18T00:08:41;98619.63;;;23.53;56.71
7018;BME280;3549;42.162;24.726;2022-08-18T00:11:06;98814.63;;;24.65;57.27
7018;BME280;3549;42.162;24.726;2022-08-18T00:13:32;98529.56;;;22.94;57.51
7018;BME280;3549;42.162;24.726;2022-08-18T00:15:58;98527.84;;;22.92;57.26
7018;BME280;3549;42.162;24.726;2022-08-18T00:18:23;98551.59;;;23.10;57.06
7018;BME280;3549;42.162;24.726;2022-08-18T00:20:49;98681.94;;;23.81;57.39
7018;BME280;3549;42.162;24.726;2022-08-18T00:23:14;98515.91;;;22.85;57.16
7018;BME280;3549;42.162;24.726;2022-08-18T00:25:40;98473.53;;;22.53;57.33
7018;BME280;3549;42.162;24.726;2022-08-18T00:28:06;98829.53;;;24.54;57.86
7018;BME280;3549;42.162;24.726;2022-08-18T00:30:32;98300.94;;;21.53;57.34
7018;BME280;3549;42.162;24.726;2022-08-18T00:32:59;98749.31;;;24.15;57.86
7018;BME280;3549;42.162;24.726;2022-08-18T00:35:35;98570.44;;;23.15;57.23
7018;BME280;3549;42.162;24.726;2022-08-18T00:38:04;98807.78;;;24.63;57.17
7018;BME280;3549;42.162;24.726;2022-08-18T00:40:42;98804.28;;;24.65;56.81
7018;BME280;3549;42.162;24.726;2022-08-18T00:43:12;98788.09;;;24.56;56.41
7018;BME280;3549;42.162;24.726;2022-08-18T00:45:40;98774.41;;;24.51;56.37
7018;BME280;3549;42.162;24.726;2022-08-18T00:48:08;98804.91;;;24.75;56.36
7018;BME280;3549;42.162;24.726;2022-08-18T00:50:44;98811.72;;;24.81;56.05
7018;BME280;3549;42.162;24.726;2022-08-18T00:53:36;98674.00;;;23.88;55.86
7018;BME280;3549;42.162;24.726;2022-08-18T00:56:07;98815.25;;;24.77;55.94
7018;BME280;3549;42.162;24.726;2022-08-18T00:58:47;98519.22;;;22.94;56.30
7018;BME280;3549;42.162;24.726;2022-08-18T01:01:15;98646.97;;;23.63;55.72
7018;BME280;3549;42.162;24.726;2022-08-18T01:03:44;98798.22;;;24.67;55.46
7018;BME280;3549;42.162;24.726;2022-08-18T01:06:25;98609.28;;;23.53;55.00
7018;BME280;3549;42.162;24.726;2022-08-18T01:08:52;98610.84;;;23.60;54.71
7018;BME280;3549;42.162;24.726;2022-08-18T01:11:18;98656.75;;;23.89;55.16
7018;BME280;3549;42.162;24.726;2022-08-18T01:13:44;98835.09;;;24.78;54.91
7018;BME280;3549;42.162;24.726;2022-08-18T01:16:10;98636.38;;;23.75;54.71
7018;BME280;3549;42.162;24.726;2022-08-18T01:18:54;98716.19;;;24.32;54.29
7018;BME280;3549;42.162;24.726;2022-08-18T01:21:46;98805.66;;;24.82;54.58
7018;BME280;3549;42.162;24.726;2022-08-18T01:24:18;98824.50;;;24.88;54.98
7018;BME280;3549;42.162;24.726;2022-08-18T01:26:46;98650.72;;;23.88;54.57
7018;BME280;3549;42.162;24.726;2022-08-18T01:29:16;98813.13;;;24.95;54.46
7018;BME280;3549;42.162;24.726;2022-08-18T01:31:47;98813.22;;;24.91;54.33
7018;BME280;3549;42.162;24.726;2022-08-18T01:34:15;98757.81;;;24.59;54.11
7018;BME280;3549;42.162;24.726;2022-08-18T01:36:41;98614.09;;;23.68;54.37
7018;BME280;3549;42.162;24.726;2022-08-18T01:39:09;98688.22;;;24.11;54.22
7018;BME280;3549;42.162;24.726;2022-08-18T01:41:36;98427.81;;;22.59;54.14
7018;BME280;3549;42.162;24.726;2022-08-18T01:44:02;98704.16;;;24.31;54.17
7018;BME280;3549;42.162;24.726;2022-08-18T01:46:31;98556.19;;;23.38;54.06
7018;BME280;3549;42.162;24.726;2022-08-18T01:48:58;98712.03;;;24.25;54.33
7018;BME280;3549;42.162;24.726;2022-08-18T01:51:28;98822.13;;;24.79;54.93
7018;BME280;3549;42.162;24.726;2022-08-18T01:53:54;98500.56;;;22.79;55.09
7018;BME280;3549;42.162;24.726;2022-08-18T01:56:20;98821.72;;;24.57;55.69
7018;BME280;3549;42.162;24.726;2022-08-18T01:58:46;98462.22;;;22.58;54.91
7018;BME280;3549;42.162;24.726;2022-08-18T02:01:13;98400.25;;;22.17;55.34
7018;BME280;3549;42.162;24.726;2022-08-18T02:03:43;98696.41;;;23.88;55.54
7018;BME280;3549;42.162;24.726;2022-08-18T02:06:13;98254.22;;;21.24;55.72
7018;BME280;3549;42.162;24.726;2022-08-18T02:08:39;98812.22;;;24.58;55.67
7018;BME280;3549;42.162;24.726;2022-08-18T02:11:05;98828.97;;;24.40;56.48
7018;BME280;3549;42.162;24.726;2022-08-18T02:13:31;98611.50;;;23.27;56.09
7018;BME280;3549;42.162;24.726;2022-08-18T02:15:56;98414.63;;;21.83;56.85
7018;BME280;3549;42.162;24.726;2022-08-18T02:18:26;98672.56;;;23.29;57.49
7018;BME280;3549;42.162;24.726;2022-08-18T02:20:56;98517.09;;;22.22;57.70
7018;BME280;3549;42.162;24.726;2022-08-18T02:23:22;98529.56;;;22.46;57.39
7018;BME280;3549;42.162;24.726;2022-08-18T02:25:48;98814.03;;;24.13;57.33
7018;BME280;3549;42.162;24.726;2022-08-18T02:28:13;98520.28;;;22.34;58.00
7018;BME280;3549;42.162;24.726;2022-08-18T02:30:40;98818.34;;;24.14;58.05
7018;BME280;3549;42.162;24.726;2022-08-18T02:33:07;98804.69;;;24.04;58.32
7018;BME280;3549;42.162;24.726;2022-08-18T02:35:33;98612.25;;;22.87;58.50
7018;BME280;3549;42.162;24.726;2022-08-18T02:37:59;98470.34;;;21.91;58.97
7018;BME280;3549;42.162;24.726;2022-08-18T02:40:25;98811.84;;;23.90;59.25
7018;BME280;3549;42.162;24.726;2022-08-18T02:42:50;98510.38;;;22.12;59.02
7018;BME280;3549;42.162;24.726;2022-08-18T02:45:17;98527.16;;;22.34;59.01
7018;BME280;3549;42.162;24.726;2022-08-18T02:47:43;98432.97;;;21.63;58.69
7018;BME280;3549;42.162;24.726;2022-08-18T02:50:09;98807.53;;;23.92;59.36
7018;BME280;3549;42.162;24.726;2022-08-18T02:52:35;98631.28;;;22.82;59.04
7018;BME280;3549;42.162;24.726;2022-08-18T02:55:01;98642.09;;;23.04;58.77
7018;BME280;3549;42.162;24.726;2022-08-18T02:57:27;98561.13;;;22.60;58.59
7018;BME280;3549;42.162;24.726;2022-08-18T02:59:53;98663.66;;;23.00;58.78
7018;BME280;3549;42.162;24.726;2022-08-18T03:02:19;98460.19;;;21.81;58.83
7018;BME280;3549;42.162;24.726;2022-08-18T03:04:45;98642.56;;;22.76;59.20
7018;BME280;3549;42.162;24.726;2022-08-18T03:07:11;98518.19;;;22.06;58.93
7018;BME280;3549;42.162;24.726;2022-08-18T03:09:40;98600.63;;;22.62;59.17
7018;BME280;3549;42.162;24.726;2022-08-18T03:12:07;98594.09;;;22.43;59.32
7018;BME280;3549;42.162;24.726;2022-08-18T03:14:33;98506.47;;;21.88;59.52
7018;BME280;3549;42.162;24.726;2022-08-18T03:17:03;98486.72;;;21.89;59.14
7018;BME280;3549;42.162;24.726;2022-08-18T03:19:28;98411.00;;;21.41;58.89
7018;BME280;3549;42.162;24.726;2022-08-18T03:21:55;98815.56;;;23.77;59.47
7018;BME280;3549;42.162;24.726;2022-08-18T03:24:23;98509.00;;;21.90;58.92
7018;BME280;3549;42.162;24.726;2022-08-18T03:26:50;98515.69;;;22.03;58.61
7018;BME280;3549;42.162;24.726;2022-08-18T03:29:16;98435.75;;;21.49;58.79
7018;BME280;3549;42.162;24.726;2022-08-18T03:31:42;98354.00;;;21.08;58.73
7018;BME280;3549;42.162;24.726;2022-08-18T03:34:08;98591.50;;;22.42;59.16
7018;BME280;3549;42.162;24.726;2022-08-18T03:36:36;98486.78;;;21.81;59.09
7018;BME280;3549;42.162;24.726;2022-08-18T03:39:07;98716.81;;;23.13;59.50
7018;BME280;3549;42.162;24.726;2022-08-18T03:41:33;98820.72;;;23.77;59.43
7018;BME280;3549;42.162;24.726;2022-08-18T03:44:01;98479.94;;;21.78;59.45
7018;BME280;3549;42.162;24.726;2022-08-18T03:46:27;98677.72;;;22.83;59.31
7018;BME280;3549;42.162;24.726;2022-08-18T03:48:55;98679.16;;;23.00;58.71
7018;BME280;3549;42.162;24.726;2022-08-18T03:51:24;98505.44;;;22.00;59.08
7018;BME280;3549;42.162;24.726;2022-08-18T03:53:52;98478.47;;;21.62;58.86
7018;BME280;3549;42.162;24.726;2022-08-18T03:56:22;98512.31;;;21.99;58.84
7018;BME280;3549;42.162;24.726;2022-08-18T03:58:52;98622.94;;;22.66;58.78
7018;BME280;3549;42.162;24.726;2022-08-18T04:01:21;98705.63;;;23.12;58.71
7018;BME280;3549;42.162;24.726;2022-08-18T04:03:49;98535.94;;;22.24;58.49
7018;BME280;3549;42.162;24.726;2022-08-18T04:06:20;98723.19;;;23.41;58.40
7018;BME280;3549;42.162;24.726;2022-08-18T04:08:47;98431.16;;;21.69;57.92
7018;BME280;3549;42.162;24.726;2022-08-18T04:11:12;98634.66;;;22.85;58.00
7018;BME280;3549;42.162;24.726;2022-08-18T04:13:39;98838.88;;;24.22;57.81
7018;BME280;3549;42.162;24.726;2022-08-18T04:16:04;98592.88;;;22.64;58.22
7018;BME280;3549;42.162;24.726;2022-08-18T04:18:30;98529.03;;;22.26;58.84
7018;BME280;3549;42.162;24.726;2022-08-18T04:21:00;98576.06;;;22.40;58.78
7018;BME280;3549;42.162;24.726;2022-08-18T04:23:26;98433.66;;;21.74;57.99
7018;BME280;3549;42.162;24.726;2022-08-18T04:25:59;98797.13;;;23.94;58.08
7018;BME280;3549;42.162;24.726;2022-08-18T04:28:26;98407.16;;;21.66;57.88
7018;BME280;3549;42.162;24.726;2022-08-18T04:30:52;98639.50;;;23.04;58.16
7018;BME280;3549;42.162;24.726;2022-08-18T04:33:17;98607.13;;;22.86;58.04
7018;BME280;3549;42.162;24.726;2022-08-18T04:35:43;98533.03;;;22.44;57.93
7018;BME280;3549;42.162;24.726;2022-08-18T04:38:11;98666.69;;;23.23;58.34
7018;BME280;3549;42.162;24.726;2022-08-18T04:40:36;98790.13;;;23.99;58.02
7018;BME280;3549;42.162;24.726;2022-08-18T04:43:02;98603.41;;;23.01;57.83
7018;BME280;3549;42.162;24.726;2022-08-18T04:45:27;98634.09;;;23.17;57.78
7018;BME280;3549;42.162;24.726;2022-08-18T04:47:53;98507.00;;;22.56;57.61
7018;BME280;3549;42.162;24.726;2022-08-18T04:50:20;98763.16;;;24.14;57.43
7018;BME280;3549;42.162;24.726;2022-08-18T04:52:48;98566.31;;;23.05;57.09
7018;BME280;3549;42.162;24.726;2022-08-18T04:55:32;98545.66;;;23.05;56.04
7018;BME280;3549;42.162;24.726;2022-08-18T04:57:57;98878.59;;;25.00;55.82
7018;BME280;3549;42.162;24.726;2022-08-18T05:00:23;98877.72;;;25.01;55.50
7018;BME280;3549;42.162;24.726;2022-08-18T05:02:49;98490.00;;;22.91;55.40
7018;BME280;3549;42.162;24.726;2022-08-18T05:05:14;98488.84;;;23.06;55.18
7018;BME280;3549;42.162;24.726;2022-08-18T05:07:44;98817.19;;;25.05;54.77
7018;BME280;3549;42.162;24.726;2022-08-18T05:10:11;98743.06;;;24.63;54.69
7018;BME280;3549;42.162;24.726;2022-08-18T05:12:37;98466.16;;;23.19;54.12
7018;BME280;3549;42.162;24.726;2022-08-18T05:15:06;98596.00;;;24.06;53.44
7018;BME280;3549;42.162;24.726;2022-08-18T05:17:31;98863.84;;;25.76;52.82
7018;BME280;3549;42.162;24.726;2022-08-18T05:19:59;98531.13;;;23.80;52.70
7018;BME280;3549;42.162;24.726;2022-08-18T05:22:25;98518.63;;;23.99;52.09
7018;BME280;3549;42.162;24.726;2022-08-18T05:24:51;98358.88;;;23.06;51.99
7018;BME280;3549;42.162;24.726;2022-08-18T05:27:16;98481.28;;;23.75;51.28
7018;BME280;3549;42.162;24.726;2022-08-18T05:29:42;98382.59;;;23.23;51.62
7018;BME280;3549;42.162;24.726;2022-08-18T05:32:07;98840.19;;;26.20;51.39
7018;BME280;3549;42.162;24.726;2022-08-18T05:34:34;98743.34;;;25.57;51.39
7018;BME280;3549;42.162;24.726;2022-08-18T05:42:20;98869.47;;;26.55;50.18
7018;BME280;3549;42.162;24.726;2022-08-18T05:44:51;98569.28;;;25.09;50.02
7018;BME280;3549;42.162;24.726;2022-08-18T05:47:29;98868.81;;;26.76;49.63
7018;BME280;3549;42.162;24.726;2022-08-18T05:49:57;98807.88;;;26.29;49.79
7018;BME280;3549;42.162;24.726;2022-08-18T05:52:34;98651.03;;;25.19;50.23
7018;BME280;3549;42.162;24.726;2022-08-18T05:55:22;98868.50;;;26.88;49.61
7018;BME280;3549;42.162;24.726;2022-08-18T06:00:54;98859.13;;;26.82;49.14
7018;BME280;3549;42.162;24.726;2022-08-18T06:03:25;98590.16;;;25.34;49.11
7018;BME280;3549;42.162;24.726;2022-08-18T06:05:54;98546.56;;;25.18;48.83
7018;BME280;3549;42.162;24.726;2022-08-18T06:08:24;98649.69;;;25.97;48.75
7018;BME280;3549;42.162;24.726;2022-08-18T06:10:52;98641.81;;;26.00;47.95
7018;BME280;3549;42.162;24.726;2022-08-18T06:13:18;98710.81;;;26.34;47.46
7018;BME280;3549;42.162;24.726;2022-08-18T06:15:51;98859.75;;;27.44;47.90
7018;BME280;3549;42.162;24.726;2022-08-18T06:23:45;98716.94;;;26.87;47.16
7018;BME280;3549;42.162;24.726;2022-08-18T06:31:41;98871.84;;;28.23;46.51
7018;BME280;3549;42.162;24.726;2022-08-18T06:34:30;98869.13;;;28.26;46.18
7018;BME280;3549;42.162;24.726;2022-08-18T06:42:05;98630.69;;;27.27;44.79
7018;BME280;3549;42.162;24.726;2022-08-18T06:44:52;98623.97;;;27.22;44.73
7018;BME280;3549;42.162;24.726;2022-08-18T06:50:19;98680.13;;;27.50;44.97
7018;BME280;3549;42.162;24.726;2022-08-18T06:53:06;98872.31;;;28.80;44.38
7018;BME280;3549;42.162;24.726;2022-08-18T06:55:44;98874.91;;;29.25;44.10
7018;BME280;3549;42.162;24.726;2022-08-18T07:00:53;98645.91;;;28.07;43.81
7018;BME280;3549;42.162;24.726;2022-08-18T07:03:40;98870.34;;;29.30;43.98
7018;BME280;3549;42.162;24.726;2022-08-18T07:08:48;98558.19;;;27.88;43.46
7018;BME280;3549;42.162;24.726;2022-08-18T07:13:53;98861.78;;;29.68;42.60
7018;BME280;3549;42.162;24.726;2022-08-18T07:16:40;98794.97;;;29.24;42.61
7018;BME280;3549;42.162;24.726;2022-08-18T07:19:13;98866.34;;;29.85;42.23
7018;BME280;3549;42.162;24.726;2022-08-18T07:21:41;98857.53;;;29.88;42.79
7018;BME280;3549;42.162;24.726;2022-08-18T07:24:11;98856.31;;;30.15;42.27
7018;BME280;3549;42.162;24.726;2022-08-18T07:27:03;98864.03;;;30.38;41.64
7018;BME280;3549;42.162;24.726;2022-08-18T07:29:35;98861.28;;;30.21;42.13
7018;BME280;3549;42.162;24.726;2022-08-18T07:32:14;98376.53;;;27.56;42.35
7018;BME280;3549;42.162;24.726;2022-08-18T07:34:46;98681.50;;;29.73;41.60
7018;BME280;3549;42.162;24.726;2022-08-18T07:37:20;98843.44;;;30.86;41.23
7018;BME280;3549;42.162;24.726;2022-08-18T07:42:41;98858.63;;;31.69;40.38
7018;BME280;3549;42.162;24.726;2022-08-18T07:45:37;98820.47;;;31.12;40.16
7018;BME280;3549;42.162;24.726;2022-08-18T07:48:14;98730.28;;;30.49;40.57
7018;BME280;3549;42.162;24.726;2022-08-18T07:53:31;98860.03;;;32.26;39.50
7018;BME280;3549;42.162;24.726;2022-08-18T07:56:11;98848.81;;;31.89;39.52
7018;BME280;3549;42.162;24.726;2022-08-18T07:58:52;98835.50;;;31.94;39.91
7018;BME280;3549;42.162;24.726;2022-08-18T08:01:42;98721.22;;;31.26;38.84
7018;BME280;3549;42.162;24.726;2022-08-18T08:07:27;98849.16;;;32.66;37.23
7018;BME280;3549;42.162;24.726;2022-08-18T08:12:50;98842.31;;;33.40;35.78
7018;BME280;3549;42.162;24.726;2022-08-18T08:15:26;98721.16;;;32.73;35.48
7018;BME280;3549;42.162;24.726;2022-08-18T08:18:03;98838.69;;;33.27;34.14
7018;BME280;3549;42.162;24.726;2022-08-18T08:20:39;98838.88;;;33.69;33.39
7018;BME280;3549;42.162;24.726;2022-08-18T08:34:19;98838.22;;;33.50;33.92
7018;BME280;3549;42.162;24.726;2022-08-18T08:36:49;98832.66;;;33.41;33.18
7018;BME280;3549;42.162;24.726;2022-08-18T08:39:26;98825.75;;;33.83;32.70
7018;BME280;3549;42.162;24.726;2022-08-18T08:42:00;98557.38;;;32.48;32.18
7018;BME280;3549;42.162;24.726;2022-08-18T08:44:38;98643.03;;;32.48;31.63
7018;BME280;3549;42.162;24.726;2022-08-18T08:47:25;98833.16;;;33.77;31.25
7018;BME280;3549;42.162;24.726;2022-08-18T08:49:57;98831.22;;;34.65;31.12
7018;BME280;3549;42.162;24.726;2022-08-18T08:55:10;98622.97;;;33.64;30.49
7018;BME280;3549;42.162;24.726;2022-08-18T08:57:47;98565.69;;;33.29;30.18
7018;BME280;3549;42.162;24.726;2022-08-18T09:00:14;98531.84;;;32.96;30.75
7018;BME280;3549;42.162;24.726;2022-08-18T09:03:15;98834.44;;;34.14;30.31
7018;BME280;3549;42.162;24.726;2022-08-18T09:06:07;98832.25;;;34.49;29.90
7018;BME280;3549;42.162;24.726;2022-08-18T09:08:59;98839.75;;;34.55;30.14
7018;BME280;3549;42.162;24.726;2022-08-18T09:19:54;98739.31;;;35.55;28.91
7018;BME280;3549;42.162;24.726;2022-08-18T09:22:46;98819.41;;;35.78;29.01
7018;BME280;3549;42.162;24.726;2022-08-18T09:28:11;98809.38;;;35.83;29.34
7018;BME280;3549;42.162;24.726;2022-08-18T09:39:30;98824.34;;;35.82;29.84
7018;BME280;3549;42.162;24.726;2022-08-18T09:42:31;98814.59;;;34.65;30.80
7018;BME280;3549;42.162;24.726;2022-08-18T09:45:01;98751.81;;;35.00;30.49
7018;BME280;3549;42.162;24.726;2022-08-18T09:49:54;98666.63;;;34.88;29.64
7018;BME280;3549;42.162;24.726;2022-08-18T09:57:21;98623.91;;;34.04;30.17
7018;BME280;3549;42.162;24.726;2022-08-18T10:18:31;98766.81;;;35.76;29.69
7018;BME280;3549;42.162;24.726;2022-08-18T10:21:13;98576.72;;;34.29;30.45
7018;BME280;3549;42.162;24.726;2022-08-18T10:28:58;98771.59;;;35.32;29.91
7018;BME280;3549;42.162;24.726;2022-08-18T10:31:27;98766.84;;;35.24;31.09
7018;BME280;3549;42.162;24.726;2022-08-18T10:36:52;98784.31;;;36.15;29.60
7018;BME280;3549;42.162;24.726;2022-08-18T10:39:52;98743.50;;;35.58;30.19
7018;BME280;3549;42.162;24.726;2022-08-18T10:45:05;98753.34;;;35.68;29.23
7018;BME280;3549;42.162;24.726;2022-08-18T10:47:32;98624.81;;;35.35;29.66
7018;BME280;3549;42.162;24.726;2022-08-18T10:50:01;98755.31;;;35.90;29.81
7018;BME280;3549;42.162;24.726;2022-08-18T11:04:25;98762.13;;;36.30;28.86
7018;BME280;3549;42.162;24.726;2022-08-18T11:09:29;98763.75;;;36.07;28.62
7018;BME280;3549;42.162;24.726;2022-08-18T11:11:57;98587.69;;;34.63;29.14
7018;BME280;3549;42.162;24.726;2022-08-18T11:19:52;98584.84;;;35.41;28.55
7018;BME280;3549;42.162;24.726;2022-08-18T11:22:30;98551.72;;;35.14;28.40
7018;BME280;3549;42.162;24.726;2022-08-18T11:24:56;98752.69;;;35.90;29.31
7018;BME280;3549;42.162;24.726;2022-08-18T11:27:25;98746.38;;;35.92;28.78
7018;BME280;3549;42.162;24.726;2022-08-18T11:29:51;98506.81;;;34.39;29.43
7018;BME280;3549;42.162;24.726;2022-08-18T11:32:29;98592.88;;;35.02;29.28
7018;BME280;3549;42.162;24.726;2022-08-18T11:37:56;98684.38;;;36.12;28.67
7018;BME280;3549;42.162;24.726;2022-08-18T11:43:09;98637.50;;;37.55;26.74
7018;BME280;3549;42.162;24.726;2022-08-18T11:51:09;98527.94;;;37.70;25.95
7018;BME280;3549;42.162;24.726;2022-08-18T11:53:53;98736.66;;;39.02;25.31
7018;BME280;3549;42.162;24.726;2022-08-18T12:04:14;98525.56;;;38.83;24.09
7018;BME280;3549;42.162;24.726;2022-08-18T12:07:10;98718.78;;;39.86;24.38
7018;BME280;3549;42.162;24.726;2022-08-18T12:12:33;98641.28;;;39.33;24.42
7018;BME280;3549;42.162;24.726;2022-08-18T12:15:00;98703.41;;;39.71;24.75
7018;BME280;3549;42.162;24.726;2022-08-18T12:17:28;98507.03;;;37.67;24.98
7018;BME280;3549;42.162;24.726;2022-08-18T12:19:54;98454.41;;;37.21;25.10
7018;BME280;3549;42.162;24.726;2022-08-18T12:22:24;98586.41;;;37.99;25.22
7018;BME280;3549;42.162;24.726;2022-08-18T12:24:51;98703.41;;;39.29;24.49
7018;BME280;3549;42.162;24.726;2022-08-18T12:27:21;98659.63;;;40.26;23.37
7018;BME280;3549;42.162;24.726;2022-08-18T12:29:54;98705.63;;;41.22;22.53
7018;BME280;3549;42.162;24.726;2022-08-18T12:32:22;98426.41;;;39.46;22.65
7018;BME280;3549;42.162;24.726;2022-08-18T12:34:49;98708.41;;;40.82;23.33
7018;BME280;3549;42.162;24.726;2022-08-18T12:37:20;98401.66;;;38.26;23.22
7018;BME280;3549;42.162;24.726;2022-08-18T12:39:46;98520.91;;;39.85;22.82
7018;BME280;3549;42.162;24.726;2022-08-18T12:42:12;98543.78;;;39.86;23.09
7018;BME280;3549;42.162;24.726;2022-08-18T12:44:38;98600.91;;;41.05;23.15
7018;BME280;3549;42.162;24.726;2022-08-18T12:47:10;98535.09;;;40.99;21.28
7018;BME280;3549;42.162;24.726;2022-08-18T12:49:37;98480.50;;;41.14;21.32
7018;BME280;3549;42.162;24.726;2022-08-18T12:52:02;98323.97;;;38.48;22.59
7018;BME280;3549;42.162;24.726;2022-08-18T12:54:28;98687.28;;;41.38;21.43
7018;BME280;3549;42.162;24.726;2022-08-18T12:56:54;98607.34;;;41.59;20.86
7018;BME280;3549;42.162;24.726;2022-08-18T12:59:22;98605.28;;;42.25;20.62
7018;BME280;3549;42.162;24.726;2022-08-18T13:01:48;98499.88;;;42.32;20.06
7018;BME280;3549;42.162;24.726;2022-08-18T13:04:13;98690.78;;;43.10;20.22
7018;BME280;3549;42.162;24.726;2022-08-18T13:06:50;98459.81;;;42.16;20.53
7018;BME280;3549;42.162;24.726;2022-08-18T13:09:18;98705.06;;;44.20;19.51
7018;BME280;3549;42.162;24.726;2022-08-18T13:11:43;98389.75;;;42.33;19.01
7018;BME280;3549;42.162;24.726;2022-08-18T13:14:09;98504.47;;;43.33;18.94
7018;BME280;3549;42.162;24.726;2022-08-18T13:16:38;98674.06;;;44.27;19.00
7018;BME280;3549;42.162;24.726;2022-08-18T13:19:03;98611.38;;;43.73;19.44
7018;BME280;3549;42.162;24.726;2022-08-18T13:21:29;98619.66;;;43.36;19.94
7018;BME280;3549;42.162;24.726;2022-08-18T13:23:55;98618.03;;;43.43;19.37
7018;BME280;3549;42.162;24.726;2022-08-18T13:26:26;98705.59;;;44.24;19.03
7018;BME280;3549;42.162;24.726;2022-08-18T13:28:53;98581.13;;;43.65;19.57
7018;BME280;3549;42.162;24.726;2022-08-18T13:31:18;98490.38;;;43.07;19.49
7018;BME280;3549;42.162;24.726;2022-08-18T13:33:44;98544.72;;;42.88;19.42
7018;BME280;3549;42.162;24.726;2022-08-18T13:36:09;98574.84;;;42.63;19.48
7018;BME280;3549;42.162;24.726;2022-08-18T13:38:35;98690.53;;;42.06;20.55
7018;BME280;3549;42.162;24.726;2022-08-18T13:41:02;98694.06;;;43.30;20.39
7018;BME280;3549;42.162;24.726;2022-08-18T13:43:42;98689.69;;;42.05;21.09
7018;BME280;3549;42.162;24.726;2022-08-18T13:46:10;98695.31;;;42.47;21.10
7018;BME280;3549;42.162;24.726;2022-08-18T13:48:37;98476.84;;;42.05;20.13
7018;BME280;3549;42.162;24.726;2022-08-18T13:51:05;98696.47;;;44.42;19.37
7018;BME280;3549;42.162;24.726;2022-08-18T13:53:34;98533.00;;;43.40;19.03
7018;BME280;3549;42.162;24.726;2022-08-18T13:56:00;98405.72;;;41.72;20.16
7018;BME280;3549;42.162;24.726;2022-08-18T13:58:27;98412.22;;;40.88;20.66
7018;BME280;3549;42.162;24.726;2022-08-18T14:00:58;98515.66;;;42.51;19.86
7018;BME280;3549;42.162;24.726;2022-08-18T14:03:24;98457.91;;;42.77;19.67
7018;BME280;3549;42.162;24.726;2022-08-18T14:05:50;98561.56;;;43.98;19.12
7018;BME280;3549;42.162;24.726;2022-08-18T14:08:18;98510.56;;;44.17;18.93
7018;BME280;3549;42.162;24.726;2022-08-18T14:10:43;98522.84;;;44.91;18.75
7018;BME280;3549;42.162;24.726;2022-08-18T14:13:09;98381.44;;;42.96;19.10
7018;BME280;3549;42.162;24.726;2022-08-18T14:15:36;98470.22;;;42.53;19.80
7018;BME280;3549;42.162;24.726;2022-08-18T14:18:03;98570.81;;;41.51;21.54
7018;BME280;3549;42.162;24.726;2022-08-18T14:20:29;98663.78;;;42.87;20.19
7018;BME280;3549;42.162;24.726;2022-08-18T14:23:13;98683.19;;;44.67;19.39
7018;BME280;3549;42.162;24.726;2022-08-18T14:25:57;98685.97;;;43.99;19.64
7018;BME280;3549;42.162;24.726;2022-08-18T14:28:40;98536.88;;;44.77;18.73
7018;BME280;3549;42.162;24.726;2022-08-18T14:31:06;98553.47;;;45.97;18.01
7018;BME280;3549;42.162;24.726;2022-08-18T14:33:32;98528.22;;;46.59;17.71
7018;BME280;3549;42.162;24.726;2022-08-18T14:35:58;98607.75;;;46.44;17.78
7018;BME280;3549;42.162;24.726;2022-08-18T14:38:24;98675.34;;;46.77;17.63
7018;BME280;3549;42.162;24.726;2022-08-18T14:40:50;98655.44;;;45.87;18.54
7018;BME280;3549;42.162;24.726;2022-08-18T14:43:18;98676.81;;;44.10;19.91
7018;BME280;3549;42.162;24.726;2022-08-18T14:45:46;98541.41;;;43.20;19.52
7018;BME280;3549;42.162;24.726;2022-08-18T14:48:14;98589.34;;;43.79;19.73
7018;BME280;3549;42.162;24.726;2022-08-18T14:50:41;98606.34;;;44.85;19.20
7018;BME280;3549;42.162;24.726;2022-08-18T14:53:08;98562.66;;;45.71;18.00
7018;BME280;3549;42.162;24.726;2022-08-18T14:55:34;98591.03;;;46.42;17.51
7018;BME280;3549;42.162;24.726;2022-08-18T14:58:00;98435.25;;;45.70;17.72
7018;BME280;3549;42.162;24.726;2022-08-18T15:00:26;98536.72;;;46.25;17.46
7018;BME280;3549;42.162;24.726;2022-08-18T15:02:52;98464.97;;;45.76;18.28
7018;BME280;3549;42.162;24.726;2022-08-18T15:05:18;98517.78;;;45.04;18.52
7018;BME280;3549;42.162;24.726;2022-08-18T15:07:43;98667.09;;;45.47;19.04
7018;BME280;3549;42.162;24.726;2022-08-18T15:10:11;98467.66;;;44.35;18.44
7018;BME280;3549;42.162;24.726;2022-08-18T15:12:38;98380.09;;;43.74;19.22
7018;BME280;3549;42.162;24.726;2022-08-18T15:15:08;98619.38;;;44.88;18.94
7018;BME280;3549;42.162;24.726;2022-08-18T15:17:36;98609.00;;;45.01;18.85
7018;BME280;3549;42.162;24.726;2022-08-18T15:20:07;98602.28;;;42.46;20.63
7018;BME280;3549;42.162;24.726;2022-08-18T15:22:40;98335.34;;;39.28;22.04
7018;BME280;3549;42.162;24.726;2022-08-18T15:25:25;98644.97;;;40.22;22.90
7018;BME280;3549;42.162;24.726;2022-08-18T15:28:17;98436.03;;;38.26;22.96
7018;BME280;3549;42.162;24.726;2022-08-18T15:30:48;98159.28;;;35.96;23.84
7018;BME280;3549;42.162;24.726;2022-08-18T15:33:14;98462.03;;;37.68;24.64
7018;BME280;3549;42.162;24.726;2022-08-18T15:35:44;98642.31;;;38.48;24.01
7018;BME280;3549;42.162;24.726;2022-08-18T15:38:12;98645.44;;;38.31;24.94
7018;BME280;3549;42.162;24.726;2022-08-18T15:40:54;98484.19;;;37.12;24.98
7018;BME280;3549;42.162;24.726;2022-08-18T15:43:22;98530.03;;;37.22;25.88
7018;BME280;3549;42.162;24.726;2022-08-18T15:45:48;98530.16;;;37.20;25.14
7018;BME280;3549;42.162;24.726;2022-08-18T15:48:15;98567.25;;;37.19;25.16
7018;BME280;3549;42.162;24.726;2022-08-18T15:50:42;98632.34;;;37.53;25.29
7018;BME280;3549;42.162;24.726;2022-08-18T15:53:09;98569.41;;;37.03;26.01
7018;BME280;3549;42.162;24.726;2022-08-18T15:55:37;98351.69;;;35.61;25.96
7018;BME280;3549;42.162;24.726;2022-08-18T15:58:03;98629.09;;;37.39;25.54
7018;BME280;3549;42.162;24.726;2022-08-18T16:00:30;98521.94;;;36.68;26.53
7018;BME280;3549;42.162;24.726;2022-08-18T16:03:07;98426.78;;;36.01;26.81
7018;BME280;3549;42.162;24.726;2022-08-18T16:05:36;98511.53;;;36.43;27.02